sensor_id;sensor_type;location;lat;lon;timestamp;pressure;altitude;pressure_sealevel;temperature
28305;BMP280;15569;42.652;23.040;2023-06-14T00:00:04;92724.28;;;20.26
28305;BMP280;15569;42.652;23.040;2023-06-14T00:02:31;92733.97;;;20.29
28305;BMP280;15569;42.652;23.040;2023-06-14T00:04:56;92729.88;;;20.32
28305;BMP280;15569;42.652;23.040;2023-06-14T00:07:33;92717.41;;;20.25
28305;BMP280;15569;42.652;23.040;2023-06-14T00:09:59;92720.84;;;20.23
28305;BMP280;15569;42.652;23.040;2023-06-14T00:12:24;92728.44;;;20.25
28305;BMP280;15569;42.652;23.040;2023-06-14T00:14:50;92713.91;;;20.18
28305;BMP280;15569;42.652;23.040;2023-06-14T00:17:15;92724.28;;;20.22
28305;BMP280;15569;42.652;23.040;2023-06-14T00:19:41;92721.53;;;20.20
28305;BMP280;15569;42.652;23.040;2023-06-14T00:22:07;92722.84;;;20.17
28305;BMP280;15569;42.652;23.040;2023-06-14T00:24:32;92720.13;;;20.19
28305;BMP280;15569;42.652;23.040;2023-06-14T00:26:57;92721.53;;;20.20
28305;BMP280;15569;42.652;23.040;2023-06-14T00:29:23;92717.34;;;20.17
28305;BMP280;15569;42.652;23.040;2023-06-14T00:31:48;92717.31;;;20.13
28305;BMP280;15569;42.652;23.040;2023-06-14T00:34:14;92709.75;;;20.15
28305;BMP280;15569;42.652;23.040;2023-06-14T00:36:39;92712.50;;;20.15
28305;BMP280;15569;42.652;23.040;2023-06-14T00:39:05;92701.94;;;19.92
28305;BMP280;15569;42.652;23.040;2023-06-14T00:41:30;92693.78;;;20.04
28305;BMP280;15569;42.652;23.040;2023-06-14T00:43:55;92702.81;;;20.10
28305;BMP280;15569;42.652;23.040;2023-06-14T00:46:22;92705.56;;;20.12
28305;BMP280;15569;42.652;23.040;2023-06-14T00:48:48;92692.47;;;20.15
28305;BMP280;15569;42.652;23.040;2023-06-14T00:51:13;92705.59;;;20.16
28305;BMP280;15569;42.652;23.040;2023-06-14T00:53:39;92695.91;;;20.11
28305;BMP280;15569;42.652;23.040;2023-06-14T00:56:06;92700.75;;;20.15
28305;BMP280;15569;42.652;23.040;2023-06-14T00:58:32;92703.53;;;20.17
28305;BMP280;15569;42.652;23.040;2023-06-14T01:00:57;92695.25;;;20.17
28305;BMP280;15569;42.652;23.040;2023-06-14T01:03:23;92697.31;;;20.16
28305;BMP280;15569;42.652;23.040;2023-06-14T01:05:56;92690.44;;;20.15
28305;BMP280;15569;42.652;23.040;2023-06-14T01:09:17;92691.09;;;20.16
28305;BMP280;15569;42.652;23.040;2023-06-14T01:11:43;92684.91;;;20.15
28305;BMP280;15569;42.652;23.040;2023-06-14T01:14:12;92684.91;;;20.17
28305;BMP280;15569;42.652;23.040;2023-06-14T01:16:38;92669.69;;;20.14
28305;BMP280;15569;42.652;23.040;2023-06-14T01:19:05;92676.63;;;20.15
28305;BMP280;15569;42.652;23.040;2023-06-14T01:21:31;92679.38;;;20.15
28305;BMP280;15569;42.652;23.040;2023-06-14T01:24:06;92677.97;;;20.14
28305;BMP280;15569;42.652;23.040;2023-06-14T01:26:32;92680.03;;;20.12
28305;BMP280;15569;42.652;23.040;2023-06-14T01:28:58;92682.09;;;20.07
28305;BMP280;15569;42.652;23.040;2023-06-14T01:31:24;92691.78;;;20.10
28305;BMP280;15569;42.652;23.040;2023-06-14T01:33:51;92675.84;;;20.05
28305;BMP280;15569;42.652;23.040;2023-06-14T01:36:19;92682.09;;;20.09
28305;BMP280;15569;42.652;23.040;2023-06-14T01:38:45;92679.34;;;20.09
28305;BMP280;15569;42.652;23.040;2023-06-14T01:41:11;92695.19;;;20.09
28305;BMP280;15569;42.652;23.040;2023-06-14T01:43:38;92691.03;;;20.06
28305;BMP280;15569;42.652;23.040;2023-06-14T01:46:05;92695.88;;;20.09
28305;BMP280;15569;42.652;23.040;2023-06-14T01:48:31;92696.59;;;20.10
28305;BMP280;15569;42.652;23.040;2023-06-14T01:50:57;92699.31;;;20.08
28305;BMP280;15569;42.652;23.040;2023-06-14T01:53:22;92695.16;;;20.05
28305;BMP280;15569;42.652;23.040;2023-06-14T01:55:48;92701.41;;;20.09
28305;BMP280;15569;42.652;23.040;2023-06-14T01:58:14;92708.28;;;20.08
28305;BMP280;15569;42.652;23.040;2023-06-14T02:00:41;92714.53;;;20.13
28305;BMP280;15569;42.652;23.040;2023-06-14T02:03:08;92702.75;;;20.08
28305;BMP280;15569;42.652;23.040;2023-06-14T02:05:33;92711.09;;;20.12
28305;BMP280;15569;42.652;23.040;2023-06-14T02:08:00;92709.03;;;20.15
28305;BMP280;15569;42.652;23.040;2023-06-14T02:10:25;92710.38;;;20.12
28305;BMP280;15569;42.652;23.040;2023-06-14T02:12:50;92715.25;;;20.15
28305;BMP280;15569;42.652;23.040;2023-06-14T02:15:16;92702.09;;;20.08
28305;BMP280;15569;42.652;23.040;2023-06-14T02:17:45;92704.16;;;20.07
28305;BMP280;15569;42.652;23.040;2023-06-14T02:20:12;92713.84;;;20.12
28305;BMP280;15569;42.652;23.040;2023-06-14T02:22:38;92719.38;;;20.10
28305;BMP280;15569;42.652;23.040;2023-06-14T02:25:03;92717.25;;;20.09
28305;BMP280;15569;42.652;23.040;2023-06-14T02:27:29;92728.31;;;20.07
28305;BMP280;15569;42.652;23.040;2023-06-14T02:29:54;92715.88;;;20.06
28305;BMP280;15569;42.652;23.040;2023-06-14T02:32:20;92720.66;;;20.03
28305;BMP280;15569;42.652;23.040;2023-06-14T02:34:45;92699.09;;;19.80
28305;BMP280;15569;42.652;23.040;2023-06-14T02:37:15;92706.72;;;19.85
28305;BMP280;15569;42.652;23.040;2023-06-14T02:39:40;92721.31;;;19.98
28305;BMP280;15569;42.652;23.040;2023-06-14T02:42:06;92717.09;;;19.91
28305;BMP280;15569;42.652;23.040;2023-06-14T02:44:32;92719.03;;;19.72
28305;BMP280;15569;42.652;23.040;2023-06-14T02:46:57;92705.84;;;19.65
28305;BMP280;15569;42.652;23.040;2023-06-14T02:49:24;92712.75;;;19.68
28305;BMP280;15569;42.652;23.040;2023-06-14T02:51:50;92720.44;;;19.75
28305;BMP280;15569;42.652;23.040;2023-06-14T02:54:15;92722.56;;;19.81
28305;BMP280;15569;42.652;23.040;2023-06-14T02:56:40;92711.53;;;19.83
28305;BMP280;15569;42.652;23.040;2023-06-14T02:59:06;92706.63;;;19.73
28305;BMP280;15569;42.652;23.040;2023-06-14T03:01:32;92715.03;;;19.87
28305;BMP280;15569;42.652;23.040;2023-06-14T03:04:06;92706.72;;;19.81
28305;BMP280;15569;42.652;23.040;2023-06-14T03:06:32;92718.50;;;19.90
28305;BMP280;15569;42.652;23.040;2023-06-14T03:08:59;92723.34;;;19.93
28305;BMP280;15569;42.652;23.040;2023-06-14T03:11:26;92722.66;;;19.95
28305;BMP280;15569;42.652;23.040;2023-06-14T03:13:52;92719.22;;;19.94
28305;BMP280;15569;42.652;23.040;2023-06-14T03:16:19;92726.81;;;19.94
28305;BMP280;15569;42.652;23.040;2023-06-14T03:18:50;92713.63;;;19.84
28305;BMP280;15569;42.652;23.040;2023-06-14T03:21:15;92737.81;;;19.92
28305;BMP280;15569;42.652;23.040;2023-06-14T03:23:42;92737.81;;;19.90
28305;BMP280;15569;42.652;23.040;2023-06-14T03:26:07;92732.25;;;19.86
28305;BMP280;15569;42.652;23.040;2023-06-14T03:28:33;92735.00;;;19.88
28305;BMP280;15569;42.652;23.040;2023-06-14T03:30:58;92736.47;;;19.93
28305;BMP280;15569;42.652;23.040;2023-06-14T03:33:25;92737.16;;;19.95
28305;BMP280;15569;42.652;23.040;2023-06-14T03:35:50;92742.06;;;20.03
28305;BMP280;15569;42.652;23.040;2023-06-14T03:38:17;92746.91;;;20.08
28305;BMP280;15569;42.652;23.040;2023-06-14T03:40:42;92744.81;;;20.03
28305;BMP280;15569;42.652;23.040;2023-06-14T03:43:07;92750.38;;;20.07
28305;BMP280;15569;42.652;23.040;2023-06-14T03:45:33;92748.31;;;20.07
28305;BMP280;15569;42.652;23.040;2023-06-14T03:47:58;92753.84;;;20.09
28305;BMP280;15569;42.652;23.040;2023-06-14T03:50:26;92755.84;;;19.99
28305;BMP280;15569;42.652;23.040;2023-06-14T03:52:52;92753.78;;;20.03
28305;BMP280;15569;42.652;23.040;2023-06-14T03:55:17;92757.16;;;19.96
28305;BMP280;15569;42.652;23.040;2023-06-14T03:57:43;92763.31;;;19.90
28305;BMP280;15569;42.652;23.040;2023-06-14T04:00:09;92762.59;;;19.88
28305;BMP280;15569;42.652;23.040;2023-06-14T04:02:35;92761.38;;;20.03
28305;BMP280;15569;42.652;23.040;2023-06-14T04:05:02;92755.94;;;20.13
28305;BMP280;15569;42.652;23.040;2023-06-14T04:07:27;92757.41;;;20.22
28305;BMP280;15569;42.652;23.040;2023-06-14T04:09:54;92740.84;;;20.20
28305;BMP280;15569;42.652;23.040;2023-06-14T04:12:19;92749.91;;;20.34
28305;BMP280;15569;42.652;23.040;2023-06-14T04:14:45;92737.44;;;20.29
28305;BMP280;15569;42.652;23.040;2023-06-14T04:17:10;92747.25;;;20.49
28305;BMP280;15569;42.652;23.040;2023-06-14T04:19:36;92734.84;;;20.54
28305;BMP280;15569;42.652;23.040;2023-06-14T04:22:01;92737.00;;;20.65
28305;BMP280;15569;42.652;23.040;2023-06-14T04:24:27;92734.97;;;20.74
28305;BMP280;15569;42.652;23.040;2023-06-14T04:26:58;92731.50;;;20.69
28305;BMP280;15569;42.652;23.040;2023-06-14T04:29:24;92741.13;;;20.66
28305;BMP280;15569;42.652;23.040;2023-06-14T04:31:51;92741.16;;;20.70
28305;BMP280;15569;42.652;23.040;2023-06-14T04:34:17;92746.00;;;20.66
28305;BMP280;15569;42.652;23.040;2023-06-14T04:36:43;92754.88;;;20.56
28305;BMP280;15569;42.652;23.040;2023-06-14T04:39:15;92747.25;;;20.47
28305;BMP280;15569;42.652;23.040;2023-06-14T04:41:43;92752.75;;;20.47
28305;BMP280;15569;42.652;23.040;2023-06-14T04:44:08;92751.50;;;20.62
28305;BMP280;15569;42.652;23.040;2023-06-14T04:46:35;92757.72;;;20.68
28305;BMP280;15569;42.652;23.040;2023-06-14T04:49:09;92758.47;;;20.75
28305;BMP280;15569;42.652;23.040;2023-06-14T04:51:35;92762.00;;;20.85
28305;BMP280;15569;42.652;23.040;2023-06-14T04:54:02;92760.06;;;21.12
28305;BMP280;15569;42.652;23.040;2023-06-14T04:56:28;92763.59;;;21.32
28305;BMP280;15569;42.652;23.040;2023-06-14T04:58:54;92769.63;;;20.93
28305;BMP280;15569;42.652;23.040;2023-06-14T05:01:21;92779.84;;;20.74
28305;BMP280;15569;42.652;23.040;2023-06-14T05:03:48;92778.72;;;20.13
28305;BMP280;15569;42.652;23.040;2023-06-14T05:06:15;92771.00;;;19.98
28305;BMP280;15569;42.652;23.040;2023-06-14T05:08:41;92787.53;;;19.96
28305;BMP280;15569;42.652;23.040;2023-06-14T05:11:06;92777.97;;;20.09
28305;BMP280;15569;42.652;23.040;2023-06-14T05:13:32;92784.16;;;20.05
28305;BMP280;15569;42.652;23.040;2023-06-14T05:15:58;92781.31;;;19.97
28305;BMP280;15569;42.652;23.040;2023-06-14T05:18:24;92794.53;;;20.09
28305;BMP280;15569;42.652;23.040;2023-06-14T05:20:50;92792.53;;;20.17
28305;BMP280;15569;42.652;23.040;2023-06-14T05:23:16;92779.47;;;20.20
28305;BMP280;15569;42.652;23.040;2023-06-14T05:25:43;92785.13;;;20.38
28305;BMP280;15569;42.652;23.040;2023-06-14T05:28:08;92800.91;;;20.29
28305;BMP280;15569;42.652;23.040;2023-06-14T05:30:35;92808.59;;;20.39
28305;BMP280;15569;42.652;23.040;2023-06-14T05:33:01;92807.31;;;20.50
28305;BMP280;15569;42.652;23.040;2023-06-14T05:35:26;92793.22;;;20.16
28305;BMP280;15569;42.652;23.040;2023-06-14T05:37:52;92815.63;;;20.54
28305;BMP280;15569;42.652;23.040;2023-06-14T05:40:19;92798.47;;;20.68
28305;BMP280;15569;42.652;23.040;2023-06-14T05:42:45;92798.63;;;20.92
28305;BMP280;15569;42.652;23.040;2023-06-14T05:45:11;92807.81;;;21.26
28305;BMP280;15569;42.652;23.040;2023-06-14T05:47:36;92809.97;;;21.46
28305;BMP280;15569;42.652;23.040;2023-06-14T05:50:01;92807.88;;;21.40
28305;BMP280;15569;42.652;23.040;2023-06-14T05:52:27;92806.59;;;21.70
28305;BMP280;15569;42.652;23.040;2023-06-14T05:54:53;92799.94;;;20.79
28305;BMP280;15569;42.652;23.040;2023-06-14T05:57:19;92810.81;;;20.57
28305;BMP280;15569;42.652;23.040;2023-06-14T05:59:44;92801.59;;;21.26
28305;BMP280;15569;42.652;23.040;2023-06-14T06:02:10;92810.00;;;21.50
28305;BMP280;15569;42.652;23.040;2023-06-14T06:04:35;92806.59;;;21.66
28305;BMP280;15569;42.652;23.040;2023-06-14T06:07:01;92810.13;;;21.96
28305;BMP280;15569;42.652;23.040;2023-06-14T06:09:26;92807.34;;;22.10
28305;BMP280;15569;42.652;23.040;2023-06-14T06:11:52;92806.63;;;21.88
28305;BMP280;15569;42.652;23.040;2023-06-14T06:14:17;92811.56;;;22.27
28305;BMP280;15569;42.652;23.040;2023-06-14T06:16:43;92808.78;;;22.39
28305;BMP280;15569;42.652;23.040;2023-06-14T06:19:08;92820.38;;;21.49
28305;BMP280;15569;42.652;23.040;2023-06-14T06:21:33;92819.09;;;21.91
28305;BMP280;15569;42.652;23.040;2023-06-14T06:23:59;92807.38;;;22.18
28305;BMP280;15569;42.652;23.040;2023-06-14T06:26:25;92817.09;;;22.29
28305;BMP280;15569;42.652;23.040;2023-06-14T06:28:51;92810.78;;;21.85
28305;BMP280;15569;42.652;23.040;2023-06-14T06:31:17;92812.19;;;21.92
28305;BMP280;15569;42.652;23.040;2023-06-14T06:33:42;92819.63;;;21.43
28305;BMP280;15569;42.652;23.040;2023-06-14T06:36:08;92815.66;;;20.56
28305;BMP280;15569;42.652;23.040;2023-06-14T06:38:33;92809.78;;;21.06
28305;BMP280;15569;42.652;23.040;2023-06-14T06:40:58;92806.28;;;21.01
28305;BMP280;15569;42.652;23.040;2023-06-14T06:43:24;92813.47;;;21.58
28305;BMP280;15569;42.652;23.040;2023-06-14T06:45:50;92792.13;;;21.95
28305;BMP280;15569;42.652;23.040;2023-06-14T06:48:15;92813.59;;;22.29
28305;BMP280;15569;42.652;23.040;2023-06-14T06:50:41;92813.63;;;22.59
28305;BMP280;15569;42.652;23.040;2023-06-14T06:53:06;92814.31;;;22.69
28305;BMP280;15569;42.652;23.040;2023-06-14T06:55:32;92819.19;;;22.43
28305;BMP280;15569;42.652;23.040;2023-06-14T06:57:57;92815.69;;;22.22
28305;BMP280;15569;42.652;23.040;2023-06-14T07:00:23;92817.78;;;22.46
28305;BMP280;15569;42.652;23.040;2023-06-14T07:02:48;92822.38;;;21.37
28305;BMP280;15569;42.652;23.040;2023-06-14T07:05:14;92826.03;;;21.96
28305;BMP280;15569;42.652;23.040;2023-06-14T07:07:40;92824.03;;;22.46
28305;BMP280;15569;42.652;23.040;2023-06-14T07:10:05;92815.00;;;22.26
28305;BMP280;15569;42.652;23.040;2023-06-14T07:12:31;92823.31;;;22.26
28305;BMP280;15569;42.652;23.040;2023-06-14T07:14:59;92820.53;;;22.32
28305;BMP280;15569;42.652;23.040;2023-06-14T07:17:25;92814.94;;;21.82
28305;BMP280;15569;42.652;23.040;2023-06-14T07:19:50;92823.22;;;21.78
28305;BMP280;15569;42.652;23.040;2023-06-14T07:22:16;92821.16;;;21.84
28305;BMP280;15569;42.652;23.040;2023-06-14T07:24:42;92816.25;;;21.67
28305;BMP280;15569;42.652;23.040;2023-06-14T07:27:08;92822.50;;;21.65
28305;BMP280;15569;42.652;23.040;2023-06-14T07:29:33;92821.84;;;21.85
28305;BMP280;15569;42.652;23.040;2023-06-14T07:31:58;92817.69;;;21.90
28305;BMP280;15569;42.652;23.040;2023-06-14T07:34:24;92823.25;;;21.94
28305;BMP280;15569;42.652;23.040;2023-06-14T07:36:49;92812.16;;;21.86
28305;BMP280;15569;42.652;23.040;2023-06-14T07:39:15;92827.94;;;21.51
28305;BMP280;15569;42.652;23.040;2023-06-14T07:41:41;92819.72;;;21.65
28305;BMP280;15569;42.652;23.040;2023-06-14T07:44:06;92828.78;;;21.94
28305;BMP280;15569;42.652;23.040;2023-06-14T07:46:31;92822.59;;;22.13
28305;BMP280;15569;42.652;23.040;2023-06-14T07:48:57;92835.81;;;22.43
28305;BMP280;15569;42.652;23.040;2023-06-14T07:51:22;92833.72;;;22.45
28305;BMP280;15569;42.652;23.040;2023-06-14T07:53:48;92830.22;;;22.93
28305;BMP280;15569;42.652;23.040;2023-06-14T07:56:14;92835.69;;;23.27
28305;BMP280;15569;42.652;23.040;2023-06-14T07:58:39;92838.41;;;23.39
28305;BMP280;15569;42.652;23.040;2023-06-14T08:01:05;92839.78;;;23.44
28305;BMP280;15569;42.652;23.040;2023-06-14T08:03:32;92835.06;;;22.99
28305;BMP280;15569;42.652;23.040;2023-06-14T08:05:57;92850.97;;;22.10
28305;BMP280;15569;42.652;23.040;2023-06-14T08:08:23;92848.88;;;22.06
28305;BMP280;15569;42.652;23.040;2023-06-14T08:10:48;92857.94;;;22.27
28305;BMP280;15569;42.652;23.040;2023-06-14T08:13:14;92857.94;;;22.59
28305;BMP280;15569;42.652;23.040;2023-06-14T08:15:39;92855.84;;;23.06
28305;BMP280;15569;42.652;23.040;2023-06-14T08:18:05;92857.91;;;23.15
28305;BMP280;15569;42.652;23.040;2023-06-14T08:20:30;92859.34;;;22.60
28305;BMP280;15569;42.652;23.040;2023-06-14T08:22:56;92868.31;;;22.26
28305;BMP280;15569;42.652;23.040;2023-06-14T08:25:22;92859.34;;;22.80
28305;BMP280;15569;42.652;23.040;2023-06-14T08:27:48;92853.72;;;23.22
28305;BMP280;15569;42.652;23.040;2023-06-14T08:30:13;92853.66;;;23.40
28305;BMP280;15569;42.652;23.040;2023-06-14T08:32:39;92854.41;;;23.21
28305;BMP280;15569;42.652;23.040;2023-06-14T08:35:04;92852.22;;;23.57
28305;BMP280;15569;42.652;23.040;2023-06-14T08:37:31;92856.16;;;24.00
28305;BMP280;15569;42.652;23.040;2023-06-14T08:39:56;92846.34;;;24.15
28305;BMP280;15569;42.652;23.040;2023-06-14T08:42:22;92855.81;;;23.32
28305;BMP280;15569;42.652;23.040;2023-06-14T08:44:49;92832.28;;;22.97
28305;BMP280;15569;42.652;23.040;2023-06-14T08:47:15;92850.84;;;23.58
28305;BMP280;15569;42.652;23.040;2023-06-14T08:49:45;92855.06;;;23.29
28305;BMP280;15569;42.652;23.040;2023-06-14T08:52:13;92849.47;;;23.51
28305;BMP280;15569;42.652;23.040;2023-06-14T08:54:41;92851.44;;;23.77
28305;BMP280;15569;42.652;23.040;2023-06-14T08:57:11;92855.69;;;23.56
28305;BMP280;15569;42.652;23.040;2023-06-14T08:59:47;92848.09;;;23.44
28305;BMP280;15569;42.652;23.040;2023-06-14T09:02:17;92856.28;;;23.84
28305;BMP280;15569;42.652;23.040;2023-06-14T09:04:45;92841.56;;;24.08
28305;BMP280;15569;42.652;23.040;2023-06-14T09:07:11;92841.44;;;24.22
28305;BMP280;15569;42.652;23.040;2023-06-14T09:09:41;92841.56;;;24.04
28305;BMP280;15569;42.652;23.040;2023-06-14T09:12:10;92835.41;;;23.89
28305;BMP280;15569;42.652;23.040;2023-06-14T09:14:37;92837.19;;;24.33
28305;BMP280;15569;42.652;23.040;2023-06-14T09:17:05;92828.63;;;23.56
28305;BMP280;15569;42.652;23.040;2023-06-14T09:19:30;92820.50;;;22.92
28305;BMP280;15569;42.652;23.040;2023-06-14T09:21:56;92835.66;;;23.29
28305;BMP280;15569;42.652;23.040;2023-06-14T09:24:24;92841.25;;;23.19
28305;BMP280;15569;42.652;23.040;2023-06-14T09:26:51;92837.13;;;22.88
28305;BMP280;15569;42.652;23.040;2023-06-14T09:29:17;92824.44;;;23.67
28305;BMP280;15569;42.652;23.040;2023-06-14T09:31:45;92823.63;;;23.89
28305;BMP280;15569;42.652;23.040;2023-06-14T09:34:10;92826.94;;;24.17
28305;BMP280;15569;42.652;23.040;2023-06-14T09:36:39;92819.97;;;24.14
28305;BMP280;15569;42.652;23.040;2023-06-14T09:39:05;92819.09;;;24.40
28305;BMP280;15569;42.652;23.040;2023-06-14T09:41:34;92825.47;;;24.22
28305;BMP280;15569;42.652;23.040;2023-06-14T09:44:01;92819.81;;;24.37
28305;BMP280;15569;42.652;23.040;2023-06-14T09:46:28;92815.97;;;24.80
28305;BMP280;15569;42.652;23.040;2023-06-14T09:49:00;92816.34;;;25.11
28305;BMP280;15569;42.652;23.040;2023-06-14T09:51:26;92813.84;;;24.85
28305;BMP280;15569;42.652;23.040;2023-06-14T09:53:53;92805.44;;;24.91
28305;BMP280;15569;42.652;23.040;2023-06-14T09:56:27;92812.34;;;24.96
28305;BMP280;15569;42.652;23.040;2023-06-14T09:58:56;92809.69;;;24.82
28305;BMP280;15569;42.652;23.040;2023-06-14T10:01:27;92814.50;;;24.89
28305;BMP280;15569;42.652;23.040;2023-06-14T10:03:57;92802.94;;;24.61
28305;BMP280;15569;42.652;23.040;2023-06-14T10:06:26;92807.03;;;24.70
28305;BMP280;15569;42.652;23.040;2023-06-14T10:08:57;92799.91;;;24.87
28305;BMP280;15569;42.652;23.040;2023-06-14T10:11:28;92794.31;;;24.91
28305;BMP280;15569;42.652;23.040;2023-06-14T10:13:58;92794.09;;;25.11
28305;BMP280;15569;42.652;23.040;2023-06-14T10:16:32;92793.00;;;24.86
28305;BMP280;15569;42.652;23.040;2023-06-14T10:19:06;92788.66;;;25.01
28305;BMP280;15569;42.652;23.040;2023-06-14T10:24:19;92765.75;;;25.53
28305;BMP280;15569;42.652;23.040;2023-06-14T10:26:54;92781.72;;;25.56
28305;BMP280;15569;42.652;23.040;2023-06-14T10:29:22;92782.03;;;25.32
28305;BMP280;15569;42.652;23.040;2023-06-14T10:31:49;92787.81;;;25.10
28305;BMP280;15569;42.652;23.040;2023-06-14T10:34:23;92774.78;;;24.97
28305;BMP280;15569;42.652;23.040;2023-06-14T10:37:13;92772.03;;;24.95
28305;BMP280;15569;42.652;23.040;2023-06-14T10:39:45;92778.44;;;24.79
28305;BMP280;15569;42.652;23.040;2023-06-14T10:42:12;92762.50;;;24.76
28305;BMP280;15569;42.652;23.040;2023-06-14T10:47:07;92775.03;;;24.73
28305;BMP280;15569;42.652;23.040;2023-06-14T10:49:43;92771.59;;;24.66
28305;BMP280;15569;42.652;23.040;2023-06-14T10:52:11;92770.25;;;24.63
28305;BMP280;15569;42.652;23.040;2023-06-14T10:55:11;92759.66;;;24.82
28305;BMP280;15569;42.652;23.040;2023-06-14T10:57:41;92761.94;;;25.24
28305;BMP280;15569;42.652;23.040;2023-06-14T11:00:08;92765.78;;;25.51
28305;BMP280;15569;42.652;23.040;2023-06-14T11:05:55;92751.63;;;26.14
28305;BMP280;15569;42.652;23.040;2023-06-14T11:10:49;92741.31;;;26.47
28305;BMP280;15569;42.652;23.040;2023-06-14T11:13:18;92743.09;;;26.62
28305;BMP280;15569;42.652;23.040;2023-06-14T11:15:45;92735.72;;;26.85
28305;BMP280;15569;42.652;23.040;2023-06-14T11:18:13;92737.22;;;27.15
28305;BMP280;15569;42.652;23.040;2023-06-14T11:20:39;92736.66;;;27.41
28305;BMP280;15569;42.652;23.040;2023-06-14T11:23:05;92735.53;;;27.60
28305;BMP280;15569;42.652;23.040;2023-06-14T11:25:31;92739.69;;;27.61
28305;BMP280;15569;42.652;23.040;2023-06-14T11:27:57;92741.78;;;27.61
28305;BMP280;15569;42.652;23.040;2023-06-14T11:30:23;92739.28;;;27.80
28305;BMP280;15569;42.652;23.040;2023-06-14T11:32:50;92740.53;;;28.15
28305;BMP280;15569;42.652;23.040;2023-06-14T11:35:17;92732.31;;;28.36
28305;BMP280;15569;42.652;23.040;2023-06-14T11:37:43;92727.91;;;28.45
28305;BMP280;15569;42.652;23.040;2023-06-14T11:40:11;92722.81;;;28.25
28305;BMP280;15569;42.652;23.040;2023-06-14T11:42:38;92716.16;;;28.65
28305;BMP280;15569;42.652;23.040;2023-06-14T11:45:06;92726.44;;;28.46
28305;BMP280;15569;42.652;23.040;2023-06-14T11:47:33;92714.09;;;27.82
28305;BMP280;15569;42.652;23.040;2023-06-14T11:50:00;92725.13;;;27.24
28305;BMP280;15569;42.652;23.040;2023-06-14T11:52:25;92723.91;;;27.17
28305;BMP280;15569;42.652;23.040;2023-06-14T11:54:51;92712.88;;;27.09
28305;BMP280;15569;42.652;23.040;2023-06-14T11:57:18;92707.50;;;27.34
28305;BMP280;15569;42.652;23.040;2023-06-14T11:59:44;92705.97;;;28.00
28305;BMP280;15569;42.652;23.040;2023-06-14T12:02:09;92700.63;;;27.59
28305;BMP280;15569;42.652;23.040;2023-06-14T12:04:35;92702.78;;;27.26
28305;BMP280;15569;42.652;23.040;2023-06-14T12:07:16;92703.94;;;26.68
28305;BMP280;15569;42.652;23.040;2023-06-14T12:12:24;92710.13;;;26.36
28305;BMP280;15569;42.652;23.040;2023-06-14T12:14:54;92698.72;;;26.12
28305;BMP280;15569;42.652;23.040;2023-06-14T12:17:21;92703.19;;;25.95
28305;BMP280;15569;42.652;23.040;2023-06-14T12:19:49;92708.31;;;25.78
28305;BMP280;15569;42.652;23.040;2023-06-14T12:22:16;92698.94;;;25.53
28305;BMP280;15569;42.652;23.040;2023-06-14T12:24:45;92700.31;;;25.54
28305;BMP280;15569;42.652;23.040;2023-06-14T12:27:11;92694.97;;;25.38
28305;BMP280;15569;42.652;23.040;2023-06-14T12:29:44;92693.91;;;25.15
28305;BMP280;15569;42.652;23.040;2023-06-14T12:32:09;92697.47;;;25.09
28305;BMP280;15569;42.652;23.040;2023-06-14T12:34:35;92694.19;;;24.93
28305;BMP280;15569;42.652;23.040;2023-06-14T12:37:01;92680.56;;;24.67
28305;BMP280;15569;42.652;23.040;2023-06-14T12:39:29;92685.97;;;24.81
28305;BMP280;15569;42.652;23.040;2023-06-14T12:41:57;92686.91;;;24.59
28305;BMP280;15569;42.652;23.040;2023-06-14T12:44:22;92682.78;;;24.54
28305;BMP280;15569;42.652;23.040;2023-06-14T12:46:48;92685.22;;;24.23
28305;BMP280;15569;42.652;23.040;2023-06-14T12:49:13;92689.31;;;24.28
28305;BMP280;15569;42.652;23.040;2023-06-14T12:51:39;92697.03;;;24.20
28305;BMP280;15569;42.652;23.040;2023-06-14T12:54:05;92703.31;;;24.16
28305;BMP280;15569;42.652;23.040;2023-06-14T12:56:31;92688.09;;;24.11
28305;BMP280;15569;42.652;23.040;2023-06-14T12:58:56;92693.63;;;24.13
28305;BMP280;15569;42.652;23.040;2023-06-14T13:01:22;92703.19;;;24.30
28305;BMP280;15569;42.652;23.040;2023-06-14T13:03:47;92708.72;;;24.35
28305;BMP280;15569;42.652;23.040;2023-06-14T13:06:13;92700.41;;;24.28
28305;BMP280;15569;42.652;23.040;2023-06-14T13:08:39;92694.00;;;24.46
28305;BMP280;15569;42.652;23.040;2023-06-14T13:11:04;92695.31;;;24.55
28305;BMP280;15569;42.652;23.040;2023-06-14T13:13:30;92707.78;;;24.58
28305;BMP280;15569;42.652;23.040;2023-06-14T13:15:55;92698.41;;;24.90
28305;BMP280;15569;42.652;23.040;2023-06-14T13:18:21;92700.88;;;24.53
28305;BMP280;15569;42.652;23.040;2023-06-14T13:20:47;92703.41;;;24.04
28305;BMP280;15569;42.652;23.040;2023-06-14T13:23:12;92696.66;;;23.81
28305;BMP280;15569;42.652;23.040;2023-06-14T13:25:39;92690.91;;;24.03
28305;BMP280;15569;42.652;23.040;2023-06-14T13:28:05;92708.41;;;23.88
28305;BMP280;15569;42.652;23.040;2023-06-14T13:30:32;92699.28;;;23.97
28305;BMP280;15569;42.652;23.040;2023-06-14T13:32:57;92700.22;;;24.51
28305;BMP280;15569;42.652;23.040;2023-06-14T13:35:24;92694.53;;;25.19
28305;BMP280;15569;42.652;23.040;2023-06-14T13:37:49;92691.16;;;25.13
28305;BMP280;15569;42.652;23.040;2023-06-14T13:40:15;92694.16;;;24.95
28305;BMP280;15569;42.652;23.040;2023-06-14T13:42:41;92703.63;;;25.16
28305;BMP280;15569;42.652;23.040;2023-06-14T13:45:07;92695.78;;;24.74
28305;BMP280;15569;42.652;23.040;2023-06-14T13:47:33;92692.72;;;24.37
28305;BMP280;15569;42.652;23.040;2023-06-14T13:49:59;92704.06;;;24.07
28305;BMP280;15569;42.652;23.040;2023-06-14T13:52:24;92699.06;;;24.25
28305;BMP280;15569;42.652;23.040;2023-06-14T13:54:50;92703.56;;;24.61
28305;BMP280;15569;42.652;23.040;2023-06-14T13:57:16;92701.09;;;24.96
28305;BMP280;15569;42.652;23.040;2023-06-14T13:59:42;92696.31;;;25.43
28305;BMP280;15569;42.652;23.040;2023-06-14T14:02:10;92703.19;;;26.35
28305;BMP280;15569;42.652;23.040;2023-06-14T14:04:36;92688.38;;;26.45
28305;BMP280;15569;42.652;23.040;2023-06-14T14:07:03;92702.13;;;26.16